createdAt,value
2017-04-02T00:00:11.345Z,12.07
2017-04-02T00:00:51.940Z,12.13
2017-04-02T00:01:32.601Z,12.04
2017-04-02T00:02:13.230Z,12.07
2017-04-02T00:02:53.851Z,12.07
2017-04-02T00:03:34.443Z,12.03
2017-04-02T00:04:15.007Z,12.06
2017-04-02T00:04:55.626Z,12.04
2017-04-02T00:05:36.215Z,12.07
2017-04-02T00:06:16.789Z,12.1
2017-04-02T00:06:57.444Z,12.04
2017-04-02T00:07:38.033Z,12.06
2017-04-02T00:08:18.623Z,12.04
2017-04-02T00:08:59.240Z,11.97
2017-04-02T00:09:39.916Z,11.99
2017-04-02T00:10:21.411Z,11.95
2017-04-02T00:11:02.923Z,12.04
2017-04-02T00:11:44.480Z,12.04
2017-04-02T00:12:25.064Z,11.97
2017-04-02T00:13:05.645Z,11.99
2017-04-02T00:13:46.249Z,11.99
2017-04-02T00:14:26.856Z,12.06
2017-04-02T00:15:07.514Z,12
2017-04-02T00:15:48.017Z,11.91
2017-04-02T00:16:28.608Z,12
2017-04-02T00:17:09.203Z,11.97
2017-04-02T00:17:49.773Z,11.97
2017-04-02T00:18:30.382Z,11.9
2017-04-02T00:19:10.992Z,12.03
2017-04-02T00:19:51.555Z,11.99
2017-04-02T00:20:33.135Z,12.03
2017-04-02T00:21:13.714Z,12.02
2017-04-02T00:21:54.300Z,12
2017-04-02T00:22:35.877Z,12
2017-04-02T00:23:16.500Z,11.99
2017-04-02T00:23:57.060Z,11.9
2017-04-02T00:24:37.624Z,11.94
2017-04-02T00:25:18.189Z,11.94
2017-04-02T00:25:58.771Z,11.97
2017-04-02T00:26:40.359Z,11.84
2017-04-02T00:27:20.943Z,11.95
2017-04-02T00:28:01.528Z,11.94
2017-04-02T00:28:42.101Z,11.94
2017-04-02T00:29:22.667Z,11.94
2017-04-02T00:30:04.093Z,11.94
2017-04-02T00:30:45.590Z,12.02
2017-04-02T00:31:26.180Z,11.87
2017-04-02T00:32:06.746Z,11.86
2017-04-02T00:32:47.308Z,11.9
2017-04-02T00:33:27.948Z,11.87
2017-04-02T00:34:08.483Z,11.95
2017-04-02T00:34:49.058Z,11.86
2017-04-02T00:35:30.640Z,11.83
2017-04-02T00:36:11.225Z,11.83
2017-04-02T00:36:51.822Z,11.88
2017-04-02T00:37:32.394Z,11.86
2017-04-02T00:38:12.973Z,11.83
2017-04-02T00:38:53.560Z,11.86
2017-04-02T00:39:34.126Z,11.83
2017-04-02T00:40:14.724Z,11.83
2017-04-02T00:40:55.334Z,11.8
2017-04-02T00:41:35.921Z,11.8
2017-04-02T00:42:16.503Z,11.83
2017-04-02T00:42:57.111Z,11.8
2017-04-02T00:43:37.651Z,11.81
2017-04-02T00:44:18.289Z,11.78
2017-04-02T00:44:58.858Z,11.81
2017-04-02T00:45:39.459Z,11.81
2017-04-02T00:46:20.039Z,11.81
2017-04-02T00:47:00.614Z,11.78
2017-04-02T00:47:41.216Z,11.68
2017-04-02T00:48:21.775Z,11.8
2017-04-02T00:49:02.358Z,11.7
2017-04-02T00:49:42.950Z,11.66
2017-04-02T00:50:23.527Z,11.66
2017-04-02T00:51:04.094Z,11.7
2017-04-02T00:51:44.665Z,11.68
2017-04-02T00:52:25.254Z,11.7
2017-04-02T00:53:05.840Z,11.7
2017-04-02T00:53:46.409Z,11.7
2017-04-02T00:54:26.978Z,11.68
2017-04-02T00:55:07.560Z,11.69
2017-04-02T00:55:48.127Z,11.75
2017-04-02T00:56:28.705Z,11.72
2017-04-02T00:57:09.285Z,11.68
2017-04-02T00:57:49.881Z,11.66
2017-04-02T00:58:30.450Z,11.65
2017-04-02T00:59:11.022Z,11.7
2017-04-02T00:59:51.617Z,11.72
2017-04-02T01:00:32.199Z,11.65
2017-04-02T01:01:12.770Z,11.7
2017-04-02T01:01:53.340Z,11.72
2017-04-02T01:02:33.912Z,11.72
2017-04-02T01:03:14.472Z,11.72
2017-04-02T01:03:55.063Z,11.72
2017-04-02T01:04:35.644Z,11.68
2017-04-02T01:05:16.229Z,11.87
2017-04-02T01:05:56.807Z,11.65
2017-04-02T01:06:37.381Z,11.69
2017-04-02T01:07:17.947Z,11.78
2017-04-02T01:07:58.529Z,11.7
2017-04-02T01:08:39.115Z,11.72
2017-04-02T01:09:19.707Z,11.72
2017-04-02T01:10:00.285Z,11.7
2017-04-02T01:10:40.890Z,11.73
2017-04-02T01:11:21.461Z,11.66
2017-04-02T01:12:02.043Z,11.63
2017-04-02T01:12:42.607Z,11.62
2017-04-02T01:13:23.175Z,11.63
2017-04-02T01:14:03.761Z,11.66
2017-04-02T01:14:44.331Z,11.65
2017-04-02T01:15:24.911Z,11.65
2017-04-02T01:16:05.483Z,11.62
2017-04-02T01:16:46.057Z,11.66
2017-04-02T01:17:26.652Z,11.65
2017-04-02T01:18:07.221Z,11.59
2017-04-02T01:18:47.780Z,11.57
2017-04-02T01:19:28.374Z,11.62
2017-04-02T01:20:08.948Z,11.57
2017-04-02T01:20:49.506Z,11.62
2017-04-02T01:21:30.091Z,11.52
2017-04-02T01:22:10.666Z,11.51
2017-04-02T01:22:51.306Z,11.57
2017-04-02T01:23:31.889Z,11.59
2017-04-02T01:24:12.518Z,11.62
2017-04-02T01:24:53.094Z,11.62
2017-04-02T01:25:33.663Z,11.57
2017-04-02T01:26:14.310Z,11.44
2017-04-02T01:26:54.884Z,11.51
2017-04-02T01:27:35.484Z,11.54
2017-04-02T01:28:16.050Z,11.5
2017-04-02T01:28:56.641Z,11.5
2017-04-02T01:29:37.248Z,11.51
2017-04-02T01:30:17.828Z,11.57
2017-04-02T01:30:58.455Z,11.47
2017-04-02T01:31:39.046Z,11.52
2017-04-02T01:32:19.619Z,11.57
2017-04-02T01:33:00.238Z,11.51
2017-04-02T01:33:40.836Z,11.5
2017-04-02T01:34:21.440Z,11.52
2017-04-02T01:35:02.004Z,11.51
2017-04-02T01:35:42.606Z,11.44
2017-04-02T01:36:23.234Z,11.51
2017-04-02T01:37:03.806Z,11.51
2017-04-02T01:37:44.406Z,11.55
2017-04-02T01:38:25.015Z,11.44
2017-04-02T01:39:05.588Z,11.48
2017-04-02T01:39:46.214Z,11.43
2017-04-02T01:40:26.790Z,11.55
2017-04-02T01:41:07.388Z,11.47
2017-04-02T01:41:47.975Z,11.5
2017-04-02T01:42:28.584Z,11.51
2017-04-02T01:43:09.179Z,11.5
2017-04-02T01:43:49.780Z,11.45
2017-04-02T01:44:30.368Z,11.44
2017-04-02T01:45:10.983Z,11.45
2017-04-02T01:45:51.532Z,11.51
2017-04-02T01:46:32.105Z,11.48
2017-04-02T01:47:12.707Z,11.55
2017-04-02T01:47:53.328Z,11.48
2017-04-02T01:48:33.920Z,11.5
2017-04-02T01:49:14.543Z,11.37
2017-04-02T01:49:55.173Z,11.43
2017-04-02T01:50:35.748Z,11.37
2017-04-02T01:51:16.348Z,11.44
2017-04-02T01:51:56.932Z,11.41
2017-04-02T01:52:37.536Z,11.45
2017-04-02T01:53:18.135Z,11.45
2017-04-02T01:53:58.730Z,11.44
2017-04-02T01:54:39.313Z,11.41
2017-04-02T01:55:19.891Z,11.45
2017-04-02T01:56:00.523Z,11.37
2017-04-02T01:56:41.116Z,11.44
2017-04-02T01:57:21.701Z,11.35
2017-04-02T01:58:02.296Z,11.43
2017-04-02T01:58:42.896Z,11.4
2017-04-02T01:59:23.484Z,11.43
2017-04-02T02:00:04.064Z,11.4
2017-04-02T02:00:44.636Z,11.37
2017-04-02T02:01:25.218Z,11.37
2017-04-02T02:02:05.785Z,11.43
2017-04-02T02:02:46.371Z,11.41
2017-04-02T02:03:26.996Z,11.4
2017-04-02T02:04:07.572Z,11.32
2017-04-02T02:04:48.186Z,11.37
2017-04-02T02:05:28.818Z,11.43
2017-04-02T02:06:09.399Z,11.32
2017-04-02T02:06:49.988Z,11.43
2017-04-02T02:07:30.568Z,11.41
2017-04-02T02:08:11.142Z,11.37
2017-04-02T02:08:51.722Z,11.44
2017-04-02T02:09:32.302Z,11.44
2017-04-02T02:10:12.908Z,11.35
2017-04-02T02:10:53.494Z,11.44
2017-04-02T02:11:34.067Z,11.41
2017-04-02T02:12:14.641Z,11.41
2017-04-02T02:12:55.208Z,11.43
2017-04-02T02:13:35.788Z,11.41
2017-04-02T02:14:16.462Z,11.41
2017-04-02T02:14:57.012Z,11.41
2017-04-02T02:15:37.585Z,11.37
2017-04-02T02:16:18.158Z,11.4
2017-04-02T02:16:58.786Z,11.4
2017-04-02T02:17:39.370Z,11.43
2017-04-02T02:18:19.970Z,11.43
2017-04-02T02:19:00.540Z,11.44
2017-04-02T02:19:41.121Z,11.43
2017-04-02T02:20:21.711Z,11.41
2017-04-02T02:21:02.330Z,11.45
2017-04-02T02:21:42.908Z,11.44
2017-04-02T02:22:24.532Z,11.37
2017-04-02T02:23:05.093Z,11.44
2017-04-02T02:23:45.708Z,11.36
2017-04-02T02:24:26.278Z,11.36
2017-04-02T02:25:06.881Z,11.36
2017-04-02T02:25:47.465Z,11.37
2017-04-02T02:26:28.053Z,11.43
2017-04-02T02:27:08.627Z,11.37
2017-04-02T02:27:49.216Z,11.37
2017-04-02T02:28:29.791Z,11.33
2017-04-02T02:29:10.374Z,11.4
2017-04-02T02:29:50.977Z,11.29
2017-04-02T02:30:31.584Z,11.4
2017-04-02T02:31:12.181Z,11.37
2017-04-02T02:31:52.747Z,11.35
2017-04-02T02:32:33.313Z,11.3
2017-04-02T02:33:13.896Z,11.27
2017-04-02T02:33:54.494Z,11.22
2017-04-02T02:34:35.076Z,11.25
2017-04-02T02:35:20.351Z,11.26
2017-04-02T02:36:00.932Z,11.32
2017-04-02T02:36:42.505Z,11.27
2017-04-02T02:37:23.084Z,11.26
2017-04-02T02:38:03.675Z,11.32
2017-04-02T02:38:44.278Z,11.3
2017-04-02T02:39:24.855Z,11.32
2017-04-02T02:40:05.426Z,11.35
2017-04-02T02:40:45.996Z,11.35
2017-04-02T02:41:26.569Z,11.32
2017-04-02T02:42:07.150Z,11.44
2017-04-02T02:42:47.731Z,11.36
2017-04-02T02:43:28.322Z,11.43
2017-04-02T02:44:08.910Z,11.4
2017-04-02T02:44:49.477Z,11.36
2017-04-02T02:45:30.048Z,11.37
2017-04-02T02:46:10.669Z,11.43
2017-04-02T02:46:51.300Z,11.37
2017-04-02T02:47:31.898Z,11.43
2017-04-02T02:48:12.478Z,11.37
2017-04-02T02:48:53.058Z,11.36
2017-04-02T02:49:33.641Z,11.41
2017-04-02T02:50:14.247Z,11.36
2017-04-02T02:50:54.827Z,11.41
2017-04-02T02:51:35.404Z,11.43
2017-04-02T02:52:16.018Z,11.45
2017-04-02T02:52:56.599Z,11.41
2017-04-02T02:53:37.188Z,11.41
2017-04-02T02:54:17.822Z,11.4
2017-04-02T02:54:58.519Z,11.43
2017-04-02T02:55:39.199Z,11.35
2017-04-02T02:56:19.814Z,11.37
2017-04-02T02:57:01.481Z,11.3
2017-04-02T02:57:42.176Z,11.4
2017-04-02T02:58:22.872Z,11.35
2017-04-02T02:59:03.457Z,11.41
2017-04-02T02:59:44.012Z,11.37
2017-04-02T03:00:25.588Z,11.35
2017-04-02T03:01:06.182Z,11.3
2017-04-02T03:01:46.798Z,11.3
2017-04-02T03:02:27.384Z,11.29
2017-04-02T03:03:07.965Z,11.29
2017-04-02T03:03:48.625Z,11.27
2017-04-02T03:04:29.349Z,11.37
2017-04-02T03:05:09.955Z,11.37
2017-04-02T03:05:50.507Z,11.33
2017-04-02T03:06:31.106Z,11.35
2017-04-02T03:07:11.679Z,11.29
2017-04-02T03:07:52.255Z,11.3
2017-04-02T03:08:32.865Z,11.4
2017-04-02T03:09:13.478Z,11.25
2017-04-02T03:09:54.105Z,11.3
2017-04-02T03:10:34.737Z,11.3
2017-04-02T03:11:15.317Z,11.25
2017-04-02T03:11:55.874Z,11.36
2017-04-02T03:12:36.449Z,11.27
2017-04-02T03:13:18.036Z,11.36
2017-04-02T03:13:58.631Z,11.37
2017-04-02T03:14:39.243Z,11.32
2017-04-02T03:15:19.842Z,11.29
2017-04-02T03:16:00.480Z,11.3
2017-04-02T03:16:42.840Z,11.32
2017-04-02T03:17:23.441Z,11.19
2017-04-02T03:18:04.036Z,11.27
2017-04-02T03:18:44.628Z,11.26
2017-04-02T03:19:25.196Z,11.32
2017-04-02T03:20:05.775Z,11.3
2017-04-02T03:20:46.377Z,11.25
2017-04-02T03:21:27.083Z,11.19
2017-04-02T03:22:07.657Z,11.19
2017-04-02T03:22:48.282Z,11.25
2017-04-02T03:23:28.926Z,11.29
2017-04-02T03:24:09.594Z,11.17
2017-04-02T03:24:50.242Z,11.29
2017-04-02T03:25:30.871Z,11.22
2017-04-02T03:26:11.406Z,11.23
2017-04-02T03:26:51.973Z,11.23
2017-04-02T03:27:32.569Z,11.19
2017-04-02T03:28:13.170Z,11.19
2017-04-02T03:28:53.722Z,11.27
2017-04-02T03:29:34.293Z,11.23
2017-04-02T03:30:14.876Z,11.18
2017-04-02T03:30:55.476Z,11.25
2017-04-02T03:31:36.027Z,11.23
2017-04-02T03:32:16.645Z,11.22
2017-04-02T03:32:58.150Z,11.26
2017-04-02T03:33:38.755Z,11.18
2017-04-02T03:34:19.362Z,11.23
2017-04-02T03:35:00.933Z,11.23
2017-04-02T03:35:41.514Z,11.19
2017-04-02T03:36:22.138Z,11.23
2017-04-02T03:37:02.743Z,11.26
2017-04-02T03:37:43.326Z,11.26
2017-04-02T03:38:23.949Z,11.26
2017-04-02T03:39:04.559Z,11.22
2017-04-02T03:39:45.129Z,11.29
2017-04-02T03:40:25.734Z,11.22
2017-04-02T03:41:06.307Z,11.18
2017-04-02T03:41:46.876Z,11.22
2017-04-02T03:42:27.438Z,11.18
2017-04-02T03:43:08.043Z,11.18
2017-04-02T03:43:48.633Z,11.23
2017-04-02T03:44:29.246Z,11.17
2017-04-02T03:45:09.828Z,11.22
2017-04-02T03:45:50.429Z,11.17
2017-04-02T03:46:31.028Z,11.15
2017-04-02T03:47:11.618Z,11.22
2017-04-02T03:47:52.196Z,11.17
2017-04-02T03:48:32.782Z,11.19
2017-04-02T03:49:13.407Z,11.15
2017-04-02T03:49:54.016Z,11.22
2017-04-02T03:50:34.591Z,11.14
2017-04-02T03:51:15.167Z,11.15
2017-04-02T03:51:55.735Z,11.19
2017-04-02T03:52:36.329Z,11.14
2017-04-02T03:53:16.901Z,11.22
2017-04-02T03:53:57.521Z,11.14
2017-04-02T03:54:38.111Z,11.22
2017-04-02T03:55:18.693Z,11.18
2017-04-02T03:55:59.348Z,11.17
2017-04-02T03:56:39.927Z,11.18
2017-04-02T03:57:20.504Z,11.23
2017-04-02T03:58:01.083Z,11.22
2017-04-02T03:58:41.661Z,11.17
2017-04-02T03:59:22.236Z,11.22
2017-04-02T04:00:02.827Z,11.14
2017-04-02T04:00:43.404Z,11.15
2017-04-02T04:01:24.018Z,11.18
2017-04-02T04:02:04.605Z,11.19
2017-04-02T04:02:45.213Z,11.19
2017-04-02T04:03:25.810Z,11.15
2017-04-02T04:04:06.426Z,11.1
2017-04-02T04:04:46.992Z,11.22
2017-04-02T04:05:27.554Z,11.15
2017-04-02T04:06:08.142Z,11.17
2017-04-02T04:06:48.723Z,11.19
2017-04-02T04:07:29.323Z,11.14
2017-04-02T04:08:09.949Z,11.11
2017-04-02T04:08:50.529Z,11.15
2017-04-02T04:09:31.135Z,11.12
2017-04-02T04:10:11.709Z,11.15
2017-04-02T04:10:52.312Z,11.08
2017-04-02T04:11:32.963Z,11.04
2017-04-02T04:12:13.569Z,10.99
2017-04-02T04:12:54.188Z,11.14
2017-04-02T04:13:34.807Z,11.02
2017-04-02T04:14:15.447Z,11.15
2017-04-02T04:14:56.112Z,11.11
2017-04-02T04:15:36.778Z,11.02
2017-04-02T04:16:17.455Z,11.11
2017-04-02T04:16:58.082Z,11.08
2017-04-02T04:17:38.734Z,11.14
2017-04-02T04:18:19.381Z,11.08
2017-04-02T04:18:59.976Z,11.07
2017-04-02T04:19:40.589Z,11
2017-04-02T04:20:21.247Z,11.02
2017-04-02T04:21:01.910Z,11.02
2017-04-02T04:21:42.553Z,11.07
2017-04-02T04:22:23.202Z,11.1
2017-04-02T04:23:03.858Z,11.08
2017-04-02T04:23:44.529Z,10.94
2017-04-02T04:24:25.209Z,11
2017-04-02T04:25:05.803Z,11
2017-04-02T04:25:46.388Z,11
2017-04-02T04:26:27.026Z,11.04
2017-04-02T04:27:07.725Z,11
2017-04-02T04:27:48.308Z,11.07
2017-04-02T04:28:28.896Z,11
2017-04-02T04:29:09.529Z,10.97
2017-04-02T04:29:50.192Z,11
2017-04-02T04:30:30.822Z,10.99
2017-04-02T04:31:11.476Z,11.05
2017-04-02T04:31:52.124Z,11.02
2017-04-02T04:32:32.772Z,10.92
2017-04-02T04:33:13.430Z,10.92
2017-04-02T04:33:54.015Z,10.92
2017-04-02T04:34:34.657Z,11
2017-04-02T04:35:15.335Z,10.94
2017-04-02T04:35:55.955Z,10.89
2017-04-02T04:36:36.596Z,10.89
2017-04-02T04:37:17.148Z,10.9
2017-04-02T04:37:57.847Z,10.92
2017-04-02T04:38:38.505Z,10.89
2017-04-02T04:39:19.093Z,10.87
2017-04-02T04:39:59.787Z,10.89
2017-04-02T04:40:40.413Z,10.96
2017-04-02T04:41:20.965Z,10.9
2017-04-02T04:42:01.671Z,10.89
2017-04-02T04:42:42.265Z,10.82
2017-04-02T04:43:22.909Z,10.86
2017-04-02T04:44:03.601Z,10.87
2017-04-02T04:44:44.183Z,10.79
2017-04-02T04:45:24.815Z,10.84
2017-04-02T04:46:05.376Z,10.92
2017-04-02T04:46:45.979Z,10.89
2017-04-02T04:47:26.563Z,10.94
2017-04-02T04:48:07.207Z,10.92
2017-04-02T04:48:49.838Z,10.89
2017-04-02T04:49:30.503Z,10.84
2017-04-02T04:50:11.126Z,10.82
2017-04-02T04:50:51.743Z,10.9
2017-04-02T04:51:32.323Z,10.86
2017-04-02T04:52:12.983Z,10.87
2017-04-02T04:52:53.563Z,10.84
2017-04-02T04:53:34.251Z,10.86
2017-04-02T04:54:14.829Z,10.75
2017-04-02T04:54:55.484Z,10.92
2017-04-02T04:55:36.161Z,10.87
2017-04-02T04:56:16.760Z,10.86
2017-04-02T04:56:57.376Z,10.82
2017-04-02T04:57:37.967Z,10.87
2017-04-02T04:58:18.570Z,10.92
2017-04-02T04:58:59.164Z,10.81
2017-04-02T04:59:39.750Z,10.89
2017-04-02T05:00:20.394Z,10.81
2017-04-02T05:01:00.978Z,10.78
2017-04-02T05:01:41.542Z,10.81
2017-04-02T05:02:22.106Z,10.82
2017-04-02T05:03:02.701Z,10.89
2017-04-02T05:03:43.287Z,10.84
2017-04-02T05:04:23.842Z,10.94
2017-04-02T05:05:05.468Z,10.84
2017-04-02T05:05:46.105Z,10.86
2017-04-02T05:06:26.695Z,10.87
2017-04-02T05:07:07.334Z,10.84
2017-04-02T05:07:47.967Z,10.87
2017-04-02T05:08:28.548Z,10.82
2017-04-02T05:09:09.227Z,10.81
2017-04-02T05:09:49.847Z,10.81
2017-04-02T05:10:30.498Z,10.9
2017-04-02T05:11:11.156Z,10.86
2017-04-02T05:11:51.813Z,10.87
2017-04-02T05:12:32.446Z,10.89
2017-04-02T05:13:13.118Z,10.86
2017-04-02T05:13:53.771Z,10.82
2017-04-02T05:14:34.446Z,10.86
2017-04-02T05:15:16.069Z,10.82
2017-04-02T05:15:56.655Z,10.86
2017-04-02T05:16:37.305Z,10.86
2017-04-02T05:17:17.881Z,10.87
2017-04-02T05:17:58.476Z,10.93
2017-04-02T05:18:39.060Z,10.87
2017-04-02T05:19:19.634Z,10.9
2017-04-02T05:20:00.290Z,10.89
2017-04-02T05:20:40.841Z,10.9
2017-04-02T05:21:21.428Z,10.92
2017-04-02T05:22:02.023Z,10.93
2017-04-02T05:22:42.671Z,10.9
2017-04-02T05:23:23.353Z,10.92
2017-04-02T05:24:04.047Z,10.96
2017-04-02T05:24:44.693Z,10.87
2017-04-02T05:25:25.343Z,11.02
2017-04-02T05:26:06.007Z,10.87
2017-04-02T05:26:46.584Z,11
2017-04-02T05:27:27.223Z,11.04
2017-04-02T05:28:07.920Z,11.02
2017-04-02T05:28:48.539Z,10.99
2017-04-02T05:29:29.234Z,11.04
2017-04-02T05:30:09.921Z,11.07
2017-04-02T05:30:50.499Z,10.96
2017-04-02T05:31:31.148Z,11.07
2017-04-02T05:32:11.847Z,11.12
2017-04-02T05:32:52.535Z,10.94
2017-04-02T05:33:33.133Z,11.05
2017-04-02T05:34:13.778Z,11.04
2017-04-02T05:34:54.354Z,11
2017-04-02T05:35:34.944Z,11
2017-04-02T05:36:15.629Z,11
2017-04-02T05:36:56.248Z,11.05
2017-04-02T05:37:36.846Z,11.04
2017-04-02T05:38:17.519Z,11.02
2017-04-02T05:38:58.206Z,11
2017-04-02T05:39:38.856Z,11
2017-04-02T05:40:19.508Z,11.05
2017-04-02T05:41:00.172Z,11.02
2017-04-02T05:41:41.844Z,11.04
2017-04-02T05:42:22.491Z,10.99
2017-04-02T05:43:03.144Z,11.04
2017-04-02T05:43:43.752Z,11
2017-04-02T05:44:24.418Z,10.99
2017-04-02T05:45:05.099Z,11.02
2017-04-02T05:45:45.706Z,11.05
2017-04-02T05:46:26.376Z,11.07
2017-04-02T05:47:07.030Z,11.04
2017-04-02T05:47:47.693Z,11.02
2017-04-02T05:48:28.326Z,11.05
2017-04-02T05:49:08.916Z,10.99
2017-04-02T05:49:49.506Z,10.99
2017-04-02T05:50:30.129Z,11.04
2017-04-02T05:51:10.710Z,11.04
2017-04-02T05:51:51.288Z,11
2017-04-02T05:52:31.895Z,10.94
2017-04-02T05:53:12.536Z,11.02
2017-04-02T05:53:53.136Z,11.05
2017-04-02T05:54:33.762Z,11.04
2017-04-02T05:55:14.411Z,11.04
2017-04-02T05:55:55.068Z,11.1
2017-04-02T05:56:35.717Z,11
2017-04-02T05:57:17.447Z,11.05
2017-04-02T05:57:58.049Z,11
2017-04-02T05:58:38.715Z,11.1
2017-04-02T05:59:19.356Z,11.04
2017-04-02T05:59:59.982Z,11.11
2017-04-02T06:00:40.570Z,11.1
2017-04-02T06:01:21.166Z,11.07
2017-04-02T06:02:01.778Z,11.18
2017-04-02T06:02:42.398Z,11.07
2017-04-02T06:03:22.985Z,11.07
2017-04-02T06:04:03.624Z,11.14
2017-04-02T06:04:44.250Z,11
2017-04-02T06:05:24.822Z,10.97
2017-04-02T06:06:05.480Z,11.04
2017-04-02T06:06:46.126Z,10.99
2017-04-02T06:07:26.792Z,11.02
2017-04-02T06:08:07.463Z,10.97
2017-04-02T06:08:49.139Z,10.93
2017-04-02T06:09:29.859Z,10.84
2017-04-02T06:10:10.525Z,10.87
2017-04-02T06:10:51.183Z,10.79
2017-04-02T06:11:31.833Z,10.84
2017-04-02T06:12:12.483Z,10.78
2017-04-02T06:12:53.117Z,10.84
2017-04-02T06:13:33.809Z,10.82
2017-04-02T06:14:14.435Z,10.76
2017-04-02T06:14:55.122Z,10.71
2017-04-02T06:15:35.779Z,10.67
2017-04-02T06:16:16.425Z,10.63
2017-04-02T06:16:57.093Z,10.67
2017-04-02T06:17:37.735Z,10.74
2017-04-02T06:18:18.341Z,10.69
2017-04-02T06:18:59.011Z,10.64
2017-04-02T06:19:39.662Z,10.67
2017-04-02T06:20:20.312Z,10.61
2017-04-02T06:21:00.978Z,10.68
2017-04-02T06:21:41.640Z,10.72
2017-04-02T06:22:22.300Z,10.6
2017-04-02T06:23:02.920Z,10.6
2017-04-02T06:23:43.584Z,10.6
2017-04-02T06:24:24.241Z,10.64
2017-04-02T06:25:04.922Z,10.69
2017-04-02T06:25:45.518Z,10.63
2017-04-02T06:26:26.092Z,10.54
2017-04-02T06:27:06.745Z,10.48
2017-04-02T06:27:47.422Z,10.54
2017-04-02T06:28:28.123Z,10.69
2017-04-02T06:29:08.705Z,10.57
2017-04-02T06:29:49.339Z,10.63
2017-04-02T06:30:30.015Z,10.61
2017-04-02T06:31:10.646Z,10.71
2017-04-02T06:31:51.303Z,10.53
2017-04-02T06:32:31.980Z,10.54
2017-04-02T06:33:12.610Z,10.59
2017-04-02T06:33:53.277Z,10.71
2017-04-02T06:34:33.917Z,10.69
2017-04-02T06:35:14.581Z,10.63
2017-04-02T06:35:56.265Z,10.53
2017-04-02T06:36:36.924Z,10.64
2017-04-02T06:37:17.555Z,10.64
2017-04-02T06:37:58.206Z,10.63
2017-04-02T06:38:38.871Z,10.59
2017-04-02T06:39:19.497Z,10.57
2017-04-02T06:40:00.172Z,10.64
2017-04-02T06:40:41.869Z,10.61
2017-04-02T06:41:22.495Z,10.69
2017-04-02T06:42:03.159Z,10.69
2017-04-02T06:42:43.800Z,10.76
2017-04-02T06:43:24.458Z,10.64
2017-04-02T06:44:06.033Z,10.67
2017-04-02T06:44:46.634Z,10.74
2017-04-02T06:45:27.234Z,10.79
2017-04-02T06:46:07.872Z,10.93
2017-04-02T06:46:48.600Z,10.86
2017-04-02T06:47:29.209Z,10.87
2017-04-02T06:48:09.855Z,10.9
2017-04-02T06:48:51.526Z,10.93
2017-04-02T06:49:33.089Z,11
2017-04-02T06:50:13.759Z,11.07
2017-04-02T06:50:54.402Z,11.02
2017-04-02T06:51:35.064Z,11.07
2017-04-02T06:52:15.725Z,11.11
2017-04-02T06:52:56.377Z,11.15
2017-04-02T06:53:37.034Z,11.15
2017-04-02T06:54:17.558Z,11.19
2017-04-02T06:54:58.256Z,11.18
2017-04-02T06:55:38.895Z,11.29
2017-04-02T06:56:19.537Z,11.25
2017-04-02T06:57:00.185Z,11.23
2017-04-02T06:57:40.836Z,11.33
2017-04-02T06:58:21.491Z,11.32
2017-04-02T06:59:02.141Z,11.27
2017-04-02T06:59:42.793Z,11.43
2017-04-02T07:00:23.440Z,11.41
2017-04-02T07:01:04.100Z,11.41
2017-04-02T07:01:44.755Z,11.48
2017-04-02T07:02:25.435Z,11.44
2017-04-02T07:03:06.071Z,11.4
2017-04-02T07:03:46.719Z,11.52
2017-04-02T07:04:27.284Z,11.36
2017-04-02T07:05:07.913Z,11.4
2017-04-02T07:05:48.498Z,11.44
2017-04-02T07:06:29.098Z,11.41
2017-04-02T07:07:09.657Z,11.52
2017-04-02T07:07:50.309Z,11.52
2017-04-02T07:08:30.904Z,11.52
2017-04-02T07:09:11.609Z,11.51
2017-04-02T07:09:52.168Z,11.47
2017-04-02T07:10:32.815Z,11.51
2017-04-02T07:11:13.417Z,11.52
2017-04-02T07:11:54.013Z,11.5
2017-04-02T07:12:34.574Z,11.57
2017-04-02T07:13:15.242Z,11.5
2017-04-02T07:13:55.822Z,11.51
2017-04-02T07:14:36.525Z,11.55
2017-04-02T07:15:17.091Z,11.6
2017-04-02T07:15:57.739Z,11.52
2017-04-02T07:16:38.397Z,11.51
2017-04-02T07:17:19.041Z,11.55
2017-04-02T07:17:59.708Z,11.48
2017-04-02T07:18:41.282Z,11.52
2017-04-02T07:19:21.929Z,11.66
2017-04-02T07:20:03.546Z,11.62
2017-04-02T07:20:44.243Z,11.6
2017-04-02T07:21:24.801Z,11.6
2017-04-02T07:22:05.463Z,11.65
2017-04-02T07:22:46.057Z,11.6
2017-04-02T07:23:26.750Z,11.66
2017-04-02T07:24:07.318Z,11.6
2017-04-02T07:24:47.964Z,11.62
2017-04-02T07:25:28.631Z,11.69
2017-04-02T07:26:09.304Z,11.7
2017-04-02T07:26:49.869Z,11.73
2017-04-02T07:27:30.523Z,11.65
2017-04-02T07:28:11.174Z,11.8
2017-04-02T07:28:51.833Z,11.78
2017-04-02T07:29:32.493Z,11.69
2017-04-02T07:30:13.148Z,11.7
2017-04-02T07:30:53.782Z,11.7
2017-04-02T07:31:34.452Z,11.7
2017-04-02T07:32:15.092Z,11.83
2017-04-02T07:32:55.741Z,11.8
2017-04-02T07:33:36.311Z,11.84
2017-04-02T07:34:16.954Z,11.84
2017-04-02T07:34:57.564Z,11.86
2017-04-02T07:35:38.220Z,11.84
2017-04-02T07:36:18.872Z,11.83
2017-04-02T07:36:59.532Z,11.81
2017-04-02T07:37:40.183Z,11.86
2017-04-02T07:38:20.833Z,11.84
2017-04-02T07:39:01.486Z,11.91
2017-04-02T07:39:42.134Z,11.91
2017-04-02T07:40:22.781Z,11.99
2017-04-02T07:41:03.443Z,11.95
2017-04-02T07:41:44.093Z,12.07
2017-04-02T07:42:24.753Z,11.91
2017-04-02T07:43:05.404Z,11.95
2017-04-02T07:43:46.055Z,11.97
2017-04-02T07:44:26.612Z,12.04
2017-04-02T07:45:07.266Z,12.1
2017-04-02T07:45:47.915Z,12.2
2017-04-02T07:46:28.569Z,12.25
2017-04-02T07:47:09.216Z,12.21
2017-04-02T07:47:49.857Z,12.35
2017-04-02T07:48:30.516Z,12.27
2017-04-02T07:49:11.170Z,12.32
2017-04-02T07:49:51.829Z,12.32
2017-04-02T07:50:32.474Z,12.29
2017-04-02T07:51:13.132Z,12.37
2017-04-02T07:51:53.674Z,12.31
2017-04-02T07:52:34.342Z,12.37
2017-04-02T07:53:14.994Z,12.32
2017-04-02T07:53:55.651Z,12.36
2017-04-02T07:54:36.236Z,12.42
2017-04-02T07:55:16.837Z,12.46
2017-04-02T07:55:57.405Z,12.43
2017-04-02T07:56:38.043Z,12.42
2017-04-02T07:57:18.740Z,12.45
2017-04-02T07:57:59.341Z,12.39
2017-04-02T07:58:39.922Z,12.43
2017-04-02T07:59:20.560Z,12.39
2017-04-02T08:00:01.146Z,12.46
2017-04-02T08:00:41.851Z,12.49
2017-04-02T08:01:22.428Z,12.54
2017-04-02T08:02:03.069Z,12.49
2017-04-02T08:02:43.657Z,12.37
2017-04-02T08:03:24.256Z,12.39
2017-04-02T08:04:04.809Z,12.6
2017-04-02T08:04:45.564Z,12.57
2017-04-02T08:05:26.065Z,12.55
2017-04-02T08:06:06.666Z,12.55
2017-04-02T08:06:47.235Z,12.54
2017-04-02T08:07:27.885Z,12.6
2017-04-02T08:08:08.574Z,12.58
2017-04-02T08:08:49.176Z,12.64
2017-04-02T08:09:29.731Z,12.65
2017-04-02T08:10:10.394Z,12.7
2017-04-02T08:10:50.984Z,12.72
2017-04-02T08:11:31.635Z,12.79
2017-04-02T08:12:12.361Z,12.83
2017-04-02T08:12:52.936Z,12.86
2017-04-02T08:13:33.593Z,12.9
2017-04-02T08:14:14.252Z,12.95
2017-04-02T08:14:54.951Z,12.98
2017-04-02T08:15:35.538Z,13.09
2017-04-02T08:16:16.179Z,13.23
2017-04-02T08:16:56.874Z,13.25
2017-04-02T08:17:37.457Z,13.41
2017-04-02T08:18:18.031Z,13.56
2017-04-02T08:18:58.690Z,13.56
2017-04-02T08:19:39.364Z,13.62
2017-04-02T08:20:19.962Z,13.68
2017-04-02T08:21:00.543Z,13.72
2017-04-02T08:21:41.177Z,13.85
2017-04-02T08:22:21.824Z,13.86
2017-04-02T08:23:02.424Z,13.85
2017-04-02T08:23:43.022Z,13.86
2017-04-02T08:24:23.602Z,13.9
2017-04-02T08:25:04.235Z,13.92
2017-04-02T08:25:44.842Z,13.96
2017-04-02T08:26:25.535Z,13.95
2017-04-02T08:27:06.139Z,13.86
2017-04-02T08:27:46.757Z,14.04
2017-04-02T08:28:27.354Z,14.11
2017-04-02T08:29:07.944Z,14.14
2017-04-02T08:29:48.597Z,14.22
2017-04-02T08:30:29.251Z,14.25
2017-04-02T08:31:09.903Z,14.36
2017-04-02T08:31:51.579Z,14.43
2017-04-02T08:32:32.229Z,14.59
2017-04-02T08:33:12.883Z,14.72
2017-04-02T08:33:53.541Z,14.73
2017-04-02T08:34:34.113Z,14.88
2017-04-02T08:35:14.762Z,14.97
2017-04-02T08:35:55.353Z,15.14
2017-04-02T08:36:36.028Z,15.15
2017-04-02T08:37:16.518Z,15.25
2017-04-02T08:37:57.181Z,15.29
2017-04-02T08:38:37.875Z,15.42
2017-04-02T08:39:18.459Z,15.42
2017-04-02T08:39:59.114Z,15.39
2017-04-02T08:40:39.766Z,15.51
2017-04-02T08:41:20.430Z,15.49
2017-04-02T08:42:01.068Z,15.54
2017-04-02T08:42:41.719Z,15.52
2017-04-02T08:43:22.373Z,15.55
2017-04-02T08:44:03.030Z,15.51
2017-04-02T08:44:43.686Z,15.37
2017-04-02T08:45:24.330Z,15.29
2017-04-02T08:46:04.987Z,15.27
2017-04-02T08:46:45.642Z,15.07